Time;durP1;ratioP1;P1;durP2;ratioP2;P2;SDS_P1;SDS_P2;PMS_P1;PMS_P2;Temp;Humidity;BMP_temperature;BMP_pressure;BME280_temperature;BME280_humidity;BME280_pressure;Samples;Min_cycle;Max_cycle;Signal;HPM_P1;HPM_P2
2023/03/12 00:01:13;;;;;;;7.27;3.23;;;0.80;99.90;;;;;;5062325;28;20198;-80
2023/03/12 00:03:39;;;;;;;8.70;3.37;;;0.80;99.90;;;;;;5080916;28;20255;-79
2023/03/12 00:06:05;;;;;;;7.40;3.40;;;0.90;99.90;;;;;;5081036;28;20253;-79
2023/03/12 00:08:31;;;;;;;6.23;3.80;;;0.90;99.90;;;;;;5079900;28;20171;-79
2023/03/12 00:10:56;;;;;;;8.63;3.10;;;0.90;99.90;;;;;;5080289;28;20198;-80
2023/03/12 00:13:22;;;;;;;6.83;3.30;;;1.00;99.90;;;;;;5062626;28;20563;-79
2023/03/12 00:15:47;;;;;;;6.80;2.57;;;1.00;99.90;;;;;;5062290;28;20315;-79
2023/03/12 00:18:13;;;;;;;4.97;3.10;;;1.00;99.90;;;;;;5062467;28;20583;-79
2023/03/12 00:20:38;;;;;;;7.87;3.53;;;1.10;99.90;;;;;;5062173;28;20182;-78
2023/03/12 00:23:04;;;;;;;6.73;2.70;;;1.10;99.90;;;;;;5079445;28;20202;-79
2023/03/12 00:25:30;;;;;;;4.87;3.10;;;1.10;99.90;;;;;;5079648;28;20171;-79
2023/03/12 00:27:55;;;;;;;7.93;3.07;;;1.10;99.90;;;;;;5080867;28;20623;-79
2023/03/12 00:30:21;;;;;;;8.43;2.93;;;1.20;99.90;;;;;;5079493;28;20324;-80
2023/03/12 00:32:46;;;;;;;6.27;2.53;;;1.20;99.90;;;;;;5061994;28;20205;-79
2023/03/12 00:35:12;;;;;;;5.00;2.70;;;1.20;99.90;;;;;;5079795;28;20193;-79
2023/03/12 00:37:38;;;;;;;4.20;2.40;;;1.20;99.90;;;;;;5061385;28;20266;-79
2023/03/12 00:40:05;;;;;;;7.70;2.47;;;1.20;99.90;;;;;;5061814;28;20622;-79
2023/03/12 00:42:30;;;;;;;6.10;2.33;;;1.30;99.90;;;;;;5062218;28;20218;-79
2023/03/12 00:44:56;;;;;;;4.60;1.90;;;1.30;99.90;;;;;;5079815;28;20171;-79
2023/03/12 00:47:22;;;;;;;3.73;2.27;;;1.30;99.90;;;;;;5080683;28;20170;-79
2023/03/12 00:49:47;;;;;;;5.13;2.27;;;1.30;99.90;;;;;;5080990;28;20186;-79
2023/03/12 00:52:13;;;;;;;4.73;2.20;;;1.30;99.90;;;;;;5062116;28;20195;-79
2023/03/12 00:54:38;;;;;;;5.50;2.30;;;1.40;99.90;;;;;;5080231;28;20490;-79
2023/03/12 00:57:04;;;;;;;2.13;1.50;;;1.40;99.90;;;;;;5061340;28;20196;-79
2023/03/12 00:59:30;;;;;;;2.93;2.10;;;1.40;99.90;;;;;;5061468;28;20189;-79
2023/03/12 01:01:56;;;;;;;8.17;1.83;;;1.40;99.90;;;;;;5061404;28;20202;-79
2023/03/12 01:04:22;;;;;;;3.10;2.00;;;1.40;99.90;;;;;;5061867;28;20189;-79
2023/03/12 01:06:47;;;;;;;5.93;2.20;;;1.50;99.90;;;;;;5080982;28;20171;-79
2023/03/12 01:09:13;;;;;;;3.30;2.13;;;1.50;99.90;;;;;;5061109;28;20183;-79
2023/03/12 01:11:38;;;;;;;4.07;1.73;;;1.50;99.90;;;;;;5061522;28;20198;-79
2023/03/12 01:14:06;;;;;;;3.23;1.80;;;1.50;99.90;;;;;;5078701;28;20190;-79
2023/03/12 01:16:32;;;;;;;6.53;1.83;;;1.50;99.90;;;;;;5079532;28;20316;-79
2023/03/12 01:19:00;;;;;;;3.77;1.60;;;1.60;99.90;;;;;;5078468;28;20214;-78
2023/03/12 01:21:27;;;;;;;2.63;1.83;;;1.60;99.90;;;;;;5061068;28;20289;-80
2023/03/12 01:23:54;;;;;;;5.83;2.20;;;1.60;99.90;;;;;;5061310;28;20203;-79
2023/03/12 01:26:19;;;;;;;6.50;2.00;;;1.60;99.90;;;;;;5081517;28;20175;-79
2023/03/12 01:28:45;;;;;;;5.77;2.13;;;1.60;99.90;;;;;;5080340;28;20218;-79
2023/03/12 01:31:15;;;;;;;4.30;1.83;;;1.70;99.90;;;;;;5080196;28;20186;-79
2023/03/12 01:33:40;;;;;;;3.50;1.73;;;1.70;99.90;;;;;;5079926;28;20238;-78
2023/03/12 01:36:24;;;;;;;5.07;1.63;;;1.70;99.90;;;;;;5080289;28;20260;-79
2023/03/12 01:38:52;;;;;;;3.47;1.80;;;1.70;99.90;;;;;;5066842;28;20181;-79
2023/03/12 01:41:18;;;;;;;8.20;2.10;;;1.70;99.90;;;;;;5083714;28;20267;-79
2023/03/12 01:43:45;;;;;;;4.37;1.93;;;1.80;99.90;;;;;;5084156;28;20252;-79
2023/03/12 01:46:22;;;;;;;7.03;1.87;;;1.70;99.90;;;;;;5084447;28;20257;-79
2023/03/12 01:49:12;;;;;;;6.57;1.63;;;1.80;99.90;;;;;;5066761;28;20245;-79
2023/03/12 01:51:44;;;;;;;6.53;1.60;;;1.80;99.90;;;;;;5084837;28;20221;-79
2023/03/12 01:54:24;;;;;;;4.93;1.57;;;1.80;99.90;;;;;;5065619;28;20183;-79
2023/03/12 01:56:50;;;;;;;4.43;1.70;;;1.80;99.90;;;;;;5084501;28;20540;-79
2023/03/12 01:59:22;;;;;;;7.07;1.70;;;1.80;99.90;;;;;;5084321;28;20528;-79
2023/03/12 02:01:49;;;;;;;4.50;2.13;;;1.80;99.90;;;;;;5067092;28;20385;-79
2023/03/12 02:04:17;;;;;;;7.00;1.90;;;1.80;99.90;;;;;;5084026;28;20232;-79
2023/03/12 02:07:06;;;;;;;6.40;2.20;;;1.90;99.90;;;;;;5066281;28;20171;-79
2023/03/12 02:09:33;;;;;;;6.70;1.70;;;1.90;99.90;;;;;;5067032;28;20171;-79
2023/03/12 02:11:59;;;;;;;7.27;2.40;;;1.90;99.90;;;;;;5067560;28;20202;-79
2023/03/12 02:14:25;;;;;;;3.37;1.93;;;1.90;99.90;;;;;;5086012;28;20171;-79
2023/03/12 02:16:51;;;;;;;3.57;1.93;;;1.90;99.90;;;;;;5069216;28;20225;-79
2023/03/12 02:19:56;;;;;;;5.33;2.27;;;1.90;99.90;;;;;;5087667;28;20633;-79
2023/03/12 02:22:22;;;;;;;2.97;1.50;;;1.90;99.90;;;;;;5084724;28;20231;-79
2023/03/12 02:25:06;;;;;;;4.37;1.90;;;1.90;99.90;;;;;;5083740;28;20569;-79
2023/03/12 02:27:35;;;;;;;4.07;2.07;;;1.90;99.90;;;;;;5098312;28;20210;-79
2023/03/12 02:30:02;;;;;;;2.63;1.90;;;1.90;99.90;;;;;;5083469;28;20183;-79
2023/03/12 02:32:33;;;;;;;2.80;1.80;;;1.90;99.90;;;;;;5064598;28;20289;-79
2023/03/12 02:34:59;;;;;;;3.47;2.00;;;1.90;99.90;;;;;;5064691;28;20171;-79
2023/03/12 02:37:25;;;;;;;3.23;1.63;;;1.90;99.90;;;;;;5082586;28;20179;-80
2023/03/12 02:39:56;;;;;;;7.00;1.70;;;1.90;99.90;;;;;;5064822;28;20262;-79
2023/03/12 02:42:23;;;;;;;3.00;1.60;;;1.90;99.90;;;;;;5082530;28;20328;-79
2023/03/12 02:44:48;;;;;;;4.90;2.30;;;1.90;99.90;;;;;;5082474;28;20309;-79
2023/03/12 02:47:14;;;;;;;8.73;2.77;;;1.90;99.90;;;;;;5083033;28;20175;-79
2023/03/12 02:49:39;;;;;;;7.00;1.93;;;1.90;99.90;;;;;;5081102;28;20182;-79
2023/03/12 02:52:05;;;;;;;4.03;2.00;;;1.90;99.90;;;;;;5063667;28;20202;-79
2023/03/12 02:54:31;;;;;;;6.80;1.90;;;1.90;99.90;;;;;;5083425;28;20292;-79
2023/03/12 02:56:56;;;;;;;4.77;2.20;;;1.90;99.90;;;;;;5080338;28;20178;-80
2023/03/12 02:59:25;;;;;;;5.60;1.70;;;1.90;99.90;;;;;;5080540;28;20171;-79
2023/03/12 03:01:53;;;;;;;3.63;1.80;;;1.90;99.90;;;;;;5062402;28;20268;-80
2023/03/12 03:04:19;;;;;;;4.17;1.93;;;1.90;99.90;;;;;;5075798;28;20682;-78
2023/03/12 03:06:47;;;;;;;6.30;2.00;;;2.00;99.90;;;;;;5075490;28;20171;-77
2023/03/12 03:09:12;;;;;;;8.03;2.30;;;2.00;99.90;;;;;;5075704;28;20171;-78
2023/03/12 03:11:38;;;;;;;3.80;2.23;;;2.00;99.90;;;;;;5058000;28;20206;-78
2023/03/12 03:14:05;;;;;;;3.23;2.13;;;2.00;99.90;;;;;;5077067;28;20610;-79
2023/03/12 03:16:31;;;;;;;5.93;2.10;;;2.00;99.90;;;;;;5060782;28;20270;-78
2023/03/12 03:18:56;;;;;;;4.50;2.07;;;2.00;99.90;;;;;;5078653;28;20248;-78
2023/03/12 03:21:22;;;;;;;8.40;2.00;;;2.00;99.90;;;;;;5079529;28;20209;-79
2023/03/12 03:23:49;;;;;;;4.67;1.90;;;2.00;99.90;;;;;;5060335;28;20202;-78
2023/03/12 03:26:17;;;;;;;8.03;1.70;;;2.00;99.90;;;;;;5078401;28;20183;-79
2023/03/12 03:28:42;;;;;;;4.73;1.93;;;2.00;99.90;;;;;;5078384;28;20182;-79
2023/03/12 03:31:08;;;;;;;5.67;2.27;;;2.00;99.90;;;;;;5060299;28;20206;-79
2023/03/12 03:33:36;;;;;;;3.10;1.87;;;2.00;99.90;;;;;;5078900;28;20179;-79
2023/03/12 03:36:02;;;;;;;3.47;1.67;;;2.10;99.90;;;;;;5078319;28;20196;-79
2023/03/12 03:38:29;;;;;;;2.93;1.60;;;2.10;99.90;;;;;;5078399;28;20174;-79
2023/03/12 03:40:55;;;;;;;5.23;1.67;;;2.00;99.90;;;;;;5059827;28;20203;-79
2023/03/12 03:43:21;;;;;;;7.53;1.50;;;2.10;99.90;;;;;;5060280;28;20225;-79
2023/03/12 03:45:47;;;;;;;3.40;1.30;;;2.10;99.90;;;;;;5060655;28;20182;-79
2023/03/12 03:48:13;;;;;;;3.27;1.70;;;2.10;99.90;;;;;;5058916;28;20248;-79
2023/03/12 03:50:40;;;;;;;2.67;1.73;;;2.10;99.90;;;;;;5078786;28;20189;-80
2023/03/12 03:53:06;;;;;;;4.77;1.93;;;2.10;99.90;;;;;;5060393;28;20206;-78
2023/03/12 03:55:36;;;;;;;3.13;1.70;;;2.10;99.90;;;;;;5079466;28;20264;-79
2023/03/12 03:58:02;;;;;;;3.13;1.77;;;2.10;99.90;;;;;;5059507;28;20186;-79
2023/03/12 04:00:27;;;;;;;6.00;1.80;;;2.20;99.90;;;;;;5078467;28;20595;-79
2023/03/12 04:02:54;;;;;;;2.03;1.40;;;2.20;99.90;;;;;;5078217;28;20198;-79
2023/03/12 04:05:20;;;;;;;2.23;1.43;;;2.20;99.90;;;;;;5060166;28;20209;-79
2023/03/12 04:07:46;;;;;;;5.43;2.10;;;2.20;99.90;;;;;;5060712;28;20171;-79
2023/03/12 04:10:12;;;;;;;2.67;1.43;;;2.20;99.90;;;;;;5079336;28;20202;-79
2023/03/12 04:12:38;;;;;;;4.47;1.60;;;2.20;99.90;;;;;;5079399;28;20686;-79
2023/03/12 04:15:04;;;;;;;4.23;1.53;;;2.20;99.90;;;;;;5079278;28;20196;-78
2023/03/12 04:17:30;;;;;;;6.60;1.67;;;2.20;99.90;;;;;;5079200;28;20236;-79
2023/03/12 04:19:56;;;;;;;3.83;1.33;;;2.20;99.90;;;;;;5079779;28;20182;-79
2023/03/12 04:22:21;;;;;;;2.50;1.60;;;2.20;99.90;;;;;;5061856;28;20214;-79
2023/03/12 04:24:47;;;;;;;6.50;1.73;;;2.20;99.90;;;;;;5080281;28;20186;-79
2023/03/12 04:27:12;;;;;;;4.17;1.83;;;2.20;99.90;;;;;;5061241;28;20182;-78
2023/03/12 04:29:39;;;;;;;3.43;1.33;;;2.30;99.90;;;;;;5063202;28;20171;-79
2023/03/12 04:32:05;;;;;;;5.60;1.50;;;2.30;99.90;;;;;;5087708;28;20182;-79
2023/03/12 04:34:31;;;;;;;8.37;1.73;;;2.30;99.90;;;;;;5069052;28;20163;-78
2023/03/12 04:36:57;;;;;;;4.30;1.80;;;2.30;99.90;;;;;;5081482;28;20179;-79
2023/03/12 04:39:22;;;;;;;4.27;1.90;;;2.30;99.90;;;;;;5063934;28;20188;-79
2023/03/12 04:41:48;;;;;;;2.27;1.40;;;2.30;99.90;;;;;;5086150;28;20195;-79
2023/03/12 04:44:14;;;;;;;6.80;1.70;;;2.40;99.90;;;;;;5086205;28;20646;-79
2023/03/12 04:46:40;;;;;;;3.80;1.80;;;2.40;99.90;;;;;;5086433;28;20674;-79
2023/03/12 04:49:06;;;;;;;3.93;1.63;;;2.40;99.90;;;;;;5086651;28;20181;-78
2023/03/12 04:51:32;;;;;;;4.90;1.70;;;2.40;99.90;;;;;;5062076;28;20242;-79
2023/03/12 04:53:58;;;;;;;3.43;1.50;;;2.40;99.90;;;;;;5062143;28;20209;-78
2023/03/12 04:56:23;;;;;;;5.50;1.70;;;2.40;99.90;;;;;;5062015;28;20193;-78
2023/03/12 04:58:49;;;;;;;6.00;1.57;;;2.40;99.90;;;;;;5061713;28;20238;-78
2023/03/12 05:01:28;;;;;;;5.10;1.67;;;2.40;99.90;;;;;;5079160;28;20237;-78
2023/03/12 05:03:53;;;;;;;4.63;1.80;;;2.40;99.90;;;;;;5078720;28;20186;-78
2023/03/12 05:06:20;;;;;;;6.03;1.97;;;2.40;99.90;;;;;;5080487;28;20218;-79
2023/03/12 05:08:47;;;;;;;3.00;1.43;;;2.50;99.90;;;;;;5078246;28;20213;-78
2023/03/12 05:11:13;;;;;;;3.33;1.70;;;2.50;99.90;;;;;;5077349;28;20206;-78
2023/03/12 05:13:39;;;;;;;3.47;1.57;;;2.50;99.90;;;;;;5064749;28;20185;-79
2023/03/12 05:16:06;;;;;;;1.80;1.33;;;2.50;99.90;;;;;;5082452;28;20181;-79
2023/03/12 05:18:31;;;;;;;3.60;1.80;;;2.50;99.90;;;;;;5061642;28;20765;-78
2023/03/12 05:21:03;;;;;;;5.67;1.80;;;2.50;99.90;;;;;;5078441;28;20222;-77
2023/03/12 05:23:29;;;;;;;4.30;1.60;;;2.60;99.90;;;;;;5077798;28;20199;-78
2023/03/12 05:25:55;;;;;;;4.70;2.00;;;2.60;99.90;;;;;;5078156;28;20244;-78
2023/03/12 05:28:26;;;;;;;5.83;1.73;;;2.50;99.90;;;;;;5079090;28;20178;-78
2023/03/12 05:30:55;;;;;;;3.17;1.63;;;2.60;99.90;;;;;;5059627;28;20604;-77
2023/03/12 05:33:21;;;;;;;3.33;1.80;;;2.60;99.90;;;;;;5059787;28;20231;-78
2023/03/12 05:35:46;;;;;;;3.30;1.70;;;2.60;99.90;;;;;;5060315;28;20277;-79
2023/03/12 05:38:12;;;;;;;6.50;2.10;;;2.60;99.90;;;;;;5077923;28;20235;-78
2023/03/12 05:40:37;;;;;;;2.90;1.63;;;2.60;99.90;;;;;;5077337;28;20251;-78
2023/03/12 05:43:06;;;;;;;5.17;1.80;;;2.60;99.90;;;;;;5060080;28;20771;-78
2023/03/12 05:45:32;;;;;;;7.13;2.00;;;2.70;99.90;;;;;;5060054;28;20354;-78
2023/03/12 05:47:58;;;;;;;6.87;1.60;;;2.60;99.90;;;;;;5060091;28;20175;-78
2023/03/12 05:50:25;;;;;;;4.47;2.20;;;2.60;99.90;;;;;;5061995;28;20519;-78
2023/03/12 05:52:51;;;;;;;5.73;1.80;;;2.70;99.90;;;;;;5078934;28;20179;-79
2023/03/12 05:55:16;;;;;;;3.47;1.73;;;2.60;99.90;;;;;;5080031;28;20666;-78
2023/03/12 05:57:42;;;;;;;3.87;2.00;;;2.60;99.90;;;;;;5061113;28;20186;-78
2023/03/12 06:00:08;;;;;;;2.77;1.80;;;2.60;99.90;;;;;;5079264;28;20171;-78
2023/03/12 06:02:34;;;;;;;12.07;2.17;;;2.60;99.90;;;;;;5078257;28;20206;-78
2023/03/12 06:05:00;;;;;;;5.37;2.13;;;2.60;99.90;;;;;;5079207;28;20171;-78
2023/03/12 06:07:25;;;;;;;3.07;2.00;;;2.70;99.90;;;;;;5079080;28;20167;-78
2023/03/12 06:09:51;;;;;;;3.63;2.10;;;2.60;99.90;;;;;;5078569;28;20614;-78
2023/03/12 06:12:16;;;;;;;2.70;1.70;;;2.70;99.90;;;;;;5059964;28;20268;-78
2023/03/12 06:14:42;;;;;;;4.70;2.00;;;2.70;99.90;;;;;;5077818;28;20182;-78
2023/03/12 06:17:07;;;;;;;4.13;2.10;;;2.70;99.90;;;;;;5059625;28;20673;-79
2023/03/12 06:19:33;;;;;;;2.23;1.70;;;2.70;99.90;;;;;;5078733;28;20190;-78
2023/03/12 06:21:58;;;;;;;4.47;1.97;;;2.70;99.90;;;;;;5079040;28;20191;-78
2023/03/12 06:24:24;;;;;;;3.47;1.90;;;2.70;99.90;;;;;;5077588;28;20207;-78
2023/03/12 06:26:49;;;;;;;8.87;2.10;;;2.70;99.90;;;;;;5077210;28;20197;-78
2023/03/12 06:29:15;;;;;;;12.17;2.23;;;2.70;99.90;;;;;;5078420;28;20177;-79
2023/03/12 06:31:42;;;;;;;3.53;1.67;;;2.70;99.90;;;;;;5078657;28;20274;-78
2023/03/12 06:34:09;;;;;;;4.77;2.33;;;2.70;99.90;;;;;;5079234;28;20171;-78
2023/03/12 06:36:34;;;;;;;4.70;1.63;;;2.80;99.90;;;;;;5060684;28;20203;-79
2023/03/12 06:39:00;;;;;;;5.00;2.27;;;2.80;99.90;;;;;;5078674;28;20175;-78
2023/03/12 06:41:26;;;;;;;3.47;2.20;;;2.80;99.90;;;;;;5060153;28;20204;-77
2023/03/12 06:43:52;;;;;;;8.67;2.53;;;2.80;99.90;;;;;;5079606;28;20273;-77
2023/03/12 06:46:24;;;;;;;6.17;2.00;;;2.80;99.90;;;;;;5058097;28;20247;-77
2023/03/12 06:48:50;;;;;;;8.47;2.13;;;2.90;99.90;;;;;;5076216;28;20502;-77
2023/03/12 06:51:16;;;;;;;6.33;2.33;;;2.90;99.90;;;;;;5080303;28;20269;-78
2023/03/12 06:53:42;;;;;;;9.23;2.33;;;2.80;99.90;;;;;;5062797;28;20181;-78
2023/03/12 06:56:07;;;;;;;4.77;2.10;;;2.80;99.90;;;;;;5077315;28;20171;-78
2023/03/12 06:58:33;;;;;;;7.43;2.37;;;2.90;99.90;;;;;;5056244;28;20179;-77
2023/03/12 07:00:58;;;;;;;4.40;1.80;;;2.80;99.90;;;;;;5074278;28;20183;-77
2023/03/12 07:03:24;;;;;;;6.37;2.60;;;2.80;99.90;;;;;;5074187;28;20201;-78
2023/03/12 07:05:50;;;;;;;8.33;2.40;;;2.80;99.90;;;;;;5073942;28;20168;-78
2023/03/12 07:08:17;;;;;;;7.73;2.30;;;2.90;99.90;;;;;;5055935;28;20174;-77
2023/03/12 07:10:43;;;;;;;5.47;2.40;;;2.90;99.90;;;;;;5055921;28;20171;-78
2023/03/12 07:13:09;;;;;;;3.07;1.83;;;2.90;99.90;;;;;;5073954;28;20179;-78
2023/03/12 07:15:34;;;;;;;8.23;2.17;;;2.90;99.90;;;;;;5055813;28;20183;-78
2023/03/12 07:18:04;;;;;;;3.97;2.17;;;3.00;99.90;;;;;;5073570;28;20191;-77
2023/03/12 07:20:31;;;;;;;5.47;2.47;;;3.00;99.90;;;;;;5056201;28;20540;-78
2023/03/12 07:22:57;;;;;;;7.77;2.70;;;3.00;99.90;;;;;;5056024;28;20202;-77
2023/03/12 07:25:23;;;;;;;4.57;2.50;;;3.10;99.90;;;;;;5073628;28;20184;-77
2023/03/12 07:27:48;;;;;;;2.97;2.07;;;3.10;99.90;;;;;;5073472;28;20168;-77
2023/03/12 07:30:14;;;;;;;4.10;1.90;;;3.10;99.90;;;;;;5055520;28;20175;-78
2023/03/12 07:32:40;;;;;;;5.07;2.23;;;3.10;99.90;;;;;;5055483;28;20194;-77
2023/03/12 07:35:06;;;;;;;4.47;2.23;;;3.10;99.90;;;;;;5073318;28;20611;-78
2023/03/12 07:37:31;;;;;;;5.53;2.23;;;3.10;99.90;;;;;;5055778;28;20213;-78
2023/03/12 07:39:57;;;;;;;5.77;2.10;;;3.20;99.90;;;;;;5074157;28;20171;-77
2023/03/12 07:42:23;;;;;;;5.60;2.23;;;3.20;99.90;;;;;;5055457;28;20670;-77
2023/03/12 07:44:48;;;;;;;4.87;1.93;;;3.20;99.90;;;;;;5056252;28;20178;-78
2023/03/12 07:47:14;;;;;;;6.20;2.17;;;3.20;99.90;;;;;;5074285;28;20523;-77
2023/03/12 07:49:40;;;;;;;4.50;2.37;;;3.20;99.90;;;;;;5073530;28;20179;-77
2023/03/12 07:52:08;;;;;;;3.97;1.97;;;3.20;99.90;;;;;;5055355;28;20201;-77
2023/03/12 07:54:34;;;;;;;4.00;2.10;;;3.30;99.90;;;;;;5073513;28;20170;-77
2023/03/12 07:57:00;;;;;;;5.13;2.37;;;3.30;99.90;;;;;;5055701;28;20204;-77
2023/03/12 07:59:26;;;;;;;4.80;2.33;;;3.30;99.90;;;;;;5055150;28;20565;-77
2023/03/12 08:01:52;;;;;;;7.03;2.30;;;3.40;99.90;;;;;;5054968;28;20225;-77
2023/03/12 08:04:18;;;;;;;7.13;2.60;;;3.40;99.90;;;;;;5054826;28;20670;-77
2023/03/12 08:06:43;;;;;;;5.00;2.27;;;3.50;99.90;;;;;;5073019;28;20532;-77
2023/03/12 08:09:09;;;;;;;4.87;2.23;;;3.50;99.90;;;;;;5054921;28;20182;-78
2023/03/12 08:11:36;;;;;;;6.33;2.80;;;3.60;99.90;;;;;;5055189;28;20197;-77
2023/03/12 08:14:02;;;;;;;5.50;2.33;;;3.50;99.90;;;;;;5054732;28;20179;-77
2023/03/12 08:16:28;;;;;;;7.33;2.53;;;3.60;99.90;;;;;;5073407;28;20198;-78
2023/03/12 08:18:54;;;;;;;7.60;2.40;;;3.60;99.90;;;;;;5073374;28;20222;-78
2023/03/12 08:21:19;;;;;;;7.17;2.07;;;3.60;99.90;;;;;;5055508;28;20225;-77
2023/03/12 08:23:45;;;;;;;4.20;2.20;;;3.60;99.90;;;;;;5055300;28;20195;-77
2023/03/12 08:26:10;;;;;;;5.00;2.27;;;3.60;99.90;;;;;;5055027;28;20232;-77
2023/03/12 08:28:36;;;;;;;6.73;2.70;;;3.70;99.90;;;;;;5054774;28;20189;-78
2023/03/12 08:31:01;;;;;;;5.97;2.77;;;3.70;99.90;;;;;;5072991;28;20197;-77
2023/03/12 08:33:27;;;;;;;5.90;2.40;;;3.80;99.90;;;;;;5054983;28;20629;-77
2023/03/12 08:35:52;;;;;;;5.73;2.77;;;3.80;99.90;;;;;;5054690;28;20175;-80
2023/03/12 08:38:19;;;;;;;5.93;2.80;;;3.80;99.90;;;;;;5055917;28;20660;-78
2023/03/12 08:40:44;;;;;;;6.27;2.43;;;3.90;99.90;;;;;;5054153;28;20270;-78
2023/03/12 08:43:10;;;;;;;4.73;2.63;;;3.90;99.90;;;;;;5072442;28;20273;-79
2023/03/12 08:45:36;;;;;;;6.40;2.63;;;4.00;99.90;;;;;;5073514;28;20167;-79
2023/03/12 08:48:05;;;;;;;4.87;2.30;;;4.00;99.90;;;;;;5073498;28;20248;-78
2023/03/12 08:50:32;;;;;;;5.77;2.53;;;3.90;99.90;;;;;;5073063;28;20167;-79
2023/03/12 08:52:58;;;;;;;7.27;3.03;;;3.90;99.90;;;;;;5073177;28;20174;-79
2023/03/12 08:55:26;;;;;;;7.60;2.57;;;4.00;99.90;;;;;;5073516;28;20657;-78
2023/03/12 08:57:53;;;;;;;5.70;3.23;;;4.00;99.90;;;;;;5073669;28;20166;-79
2023/03/12 09:00:19;;;;;;;4.90;3.17;;;4.00;99.90;;;;;;5055662;28;20175;-79
2023/03/12 09:02:45;;;;;;;5.13;2.83;;;4.10;99.90;;;;;;5073382;28;20217;-78
2023/03/12 09:05:11;;;;;;;5.70;3.13;;;4.10;99.90;;;;;;5073663;28;20167;-78
2023/03/12 09:07:37;;;;;;;5.37;2.93;;;4.10;99.90;;;;;;5074270;28;20194;-77
2023/03/12 09:10:04;;;;;;;4.63;2.73;;;4.10;99.90;;;;;;5073065;28;20178;-78
2023/03/12 09:12:30;;;;;;;3.57;2.37;;;4.10;99.90;;;;;;5072567;28;20195;-79
2023/03/12 09:14:55;;;;;;;8.87;3.47;;;4.10;99.90;;;;;;5072573;28;20170;-78
2023/03/12 09:17:21;;;;;;;4.50;3.20;;;4.10;99.90;;;;;;5054342;28;20194;-78
2023/03/12 09:19:46;;;;;;;4.27;2.87;;;4.10;99.90;;;;;;5054137;28;20603;-79
2023/03/12 09:22:12;;;;;;;4.67;2.70;;;4.20;99.90;;;;;;5072175;28;20199;-78
2023/03/12 09:24:37;;;;;;;6.77;3.23;;;4.10;99.90;;;;;;5054457;28;20177;-78
2023/03/12 09:27:03;;;;;;;8.73;3.83;;;4.10;99.90;;;;;;5054692;28;20175;-78
2023/03/12 09:29:29;;;;;;;8.60;3.13;;;4.10;99.90;;;;;;5054970;28;20171;-79
2023/03/12 09:31:55;;;;;;;5.17;3.27;;;4.10;99.90;;;;;;5072134;28;20199;-78
2023/03/12 09:34:21;;;;;;;5.50;3.90;;;4.20;99.90;;;;;;5054002;28;20232;-78
2023/03/12 09:36:46;;;;;;;9.20;3.47;;;4.20;99.90;;;;;;5053940;28;20264;-78
2023/03/12 09:39:12;;;;;;;6.60;3.87;;;4.20;99.90;;;;;;5054256;28;20182;-78
2023/03/12 09:41:40;;;;;;;11.27;4.13;;;4.20;99.90;;;;;;5071642;28;20692;-78
2023/03/12 09:44:19;;;;;;;4.47;3.30;;;4.20;99.90;;;;;;5071802;28;20240;-78
2023/03/12 09:47:07;;;;;;;4.63;3.67;;;4.20;99.90;;;;;;5054234;28;20244;-78
2023/03/12 09:49:48;;;;;;;5.80;3.37;;;4.20;99.90;;;;;;5072059;28;20685;-77
2023/03/12 09:52:28;;;;;;;7.13;4.40;;;4.30;99.90;;;;;;5053422;28;20202;-78
2023/03/12 09:55:01;;;;;;;5.50;3.80;;;4.30;99.90;;;;;;5053452;28;20162;-78
2023/03/12 09:57:28;;;;;;;4.27;3.60;;;4.30;99.90;;;;;;5071875;28;20155;-78
2023/03/12 09:59:55;;;;;;;4.87;3.83;;;4.30;99.90;;;;;;5057161;28;20187;-77
2023/03/12 10:02:45;;;;;;;5.90;4.13;;;4.30;99.90;;;;;;5075052;28;20282;-77
2023/03/12 10:05:25;;;;;;;8.17;4.23;;;4.40;99.90;;;;;;5057269;28;20320;-78
2023/03/12 10:08:03;;;;;;;7.03;4.37;;;4.40;99.90;;;;;;5075395;28;20151;-78
2023/03/12 10:10:56;;;;;;;5.63;4.47;;;4.40;99.90;;;;;;5075112;28;20218;-78
2023/03/12 10:14:12;;;;;;;7.13;5.23;;;4.50;99.90;;;;;;5057134;28;20703;-78
2023/03/12 10:17:25;;;;;;;5.30;4.70;;;4.70;99.90;;;;;;5030446;28;20604;-78
2023/03/12 10:20:20;;;;;;;7.17;4.67;;;4.80;99.90;;;;;;5012014;28;20187;-78
2023/03/12 10:23:02;;;;;;;9.40;5.10;;;4.80;99.90;;;;;;5075236;28;20215;-78
2023/03/12 10:25:35;;;;;;;7.13;5.07;;;4.80;99.90;;;;;;5074896;28;20194;-78
2023/03/12 10:28:16;;;;;;;5.83;4.90;;;4.90;99.90;;;;;;5074955;28;20189;-78
2023/03/12 10:30:49;;;;;;;7.27;5.40;;;4.90;99.90;;;;;;5074749;28;20198;-79
2023/03/12 10:33:17;;;;;;;6.27;4.87;;;4.80;99.90;;;;;;5074932;28;20203;-78
2023/03/12 10:35:44;;;;;;;6.70;5.03;;;4.90;99.90;;;;;;5074629;28;20665;-78
2023/03/12 10:38:27;;;;;;;6.43;4.70;;;4.90;99.90;;;;;;5074751;28;20175;-78
2023/03/12 10:40:53;;;;;;;8.57;5.20;;;5.00;99.90;;;;;;5074521;28;20349;-78
2023/03/12 10:43:19;;;;;;;6.40;5.20;;;5.00;99.90;;;;;;5075158;28;20289;-77
2023/03/12 10:46:14;;;;;;;6.47;5.17;;;5.10;99.90;;;;;;5074803;28;20174;-78
2023/03/12 10:48:41;;;;;;;5.60;5.00;;;5.10;99.90;;;;;;5074974;28;20168;-78
2023/03/12 10:51:10;;;;;;;9.03;6.10;;;5.20;99.90;;;;;;5074907;28;20205;-78
2023/03/12 10:53:39;;;;;;;9.50;6.07;;;5.20;99.90;;;;;;5074444;28;20179;-78
2023/03/12 10:56:07;;;;;;;8.60;5.57;;;5.20;99.90;;;;;;5074858;28;20672;-78
2023/03/12 10:58:45;;;;;;;7.27;5.13;;;5.30;99.90;;;;;;5056264;28;20179;-77
2023/03/12 11:01:29;;;;;;;8.43;5.20;;;5.30;99.90;;;;;;5074369;28;20240;-78
2023/03/12 11:04:20;;;;;;;6.80;5.30;;;5.40;99.90;;;;;;5056039;28;20609;-78
2023/03/12 11:07:18;;;;;;;7.77;5.80;;;5.40;99.90;;;;;;5056254;28;20171;-78
2023/03/12 11:09:44;;;;;;;7.70;5.47;;;5.50;99.90;;;;;;5047556;28;20329;-78
2023/03/12 11:12:26;;;;;;;10.90;5.20;;;5.50;99.90;;;;;;5074110;28;20230;-78
2023/03/12 11:14:52;;;;;;;6.43;5.77;;;5.60;99.90;;;;;;5074419;28;20174;-78
2023/03/12 11:17:21;;;;;;;8.67;5.50;;;5.60;99.90;;;;;;5056717;28;20591;-78
2023/03/12 11:19:47;;;;;;;7.07;5.60;;;5.70;99.90;;;;;;5058501;28;20522;-78
2023/03/12 11:22:15;;;;;;;8.03;5.70;;;5.70;99.90;;;;;;5062579;28;20191;-78
2023/03/12 11:25:04;;;;;;;6.97;5.60;;;5.80;99.90;;;;;;5061334;28;20292;-78
2023/03/12 11:27:48;;;;;;;9.03;5.40;;;5.80;99.90;;;;;;5089787;28;20221;-78
2023/03/12 11:30:22;;;;;;;7.07;6.13;;;5.90;99.90;;;;;;5073692;28;20202;-78
2023/03/12 11:32:48;;;;;;;8.90;6.20;;;6.00;99.90;;;;;;5073633;28;20202;-78
2023/03/12 11:35:28;;;;;;;8.33;6.60;;;6.10;99.90;;;;;;5055595;28;20199;-78
2023/03/12 11:38:23;;;;;;;6.90;6.20;;;6.20;99.90;;;;;;5055652;28;20171;-78
2023/03/12 11:41:15;;;;;;;7.70;6.80;;;6.30;99.90;;;;;;5055268;28;20209;-78
2023/03/12 11:43:59;;;;;;;11.80;6.97;;;6.40;99.90;;;;;;5055203;28;20228;-78
2023/03/12 11:46:35;;;;;;;9.80;7.63;;;6.50;99.90;;;;;;5055729;28;20253;-78
2023/03/12 11:49:29;;;;;;;11.10;8.23;;;6.60;99.90;;;;;;5055184;28;20171;-78
2023/03/12 11:52:07;;;;;;;9.90;8.50;;;6.70;99.90;;;;;;5073509;28;20202;-78
2023/03/12 11:55:10;;;;;;;11.90;9.00;;;6.80;99.90;;;;;;5055385;28;20567;-78
2023/03/12 11:57:55;;;;;;;11.80;9.00;;;6.90;99.90;;;;;;5073085;28;20163;-78
2023/03/12 12:00:30;;;;;;;11.13;8.77;;;7.00;99.90;;;;;;5073292;28;20191;-78
2023/03/12 12:03:06;;;;;;;14.80;9.97;;;7.00;99.90;;;;;;5073137;28;20193;-78
2023/03/12 12:05:47;;;;;;;11.77;9.57;;;7.00;99.90;;;;;;5055131;28;20163;-78
2023/03/12 12:08:34;;;;;;;13.03;10.23;;;7.10;99.90;;;;;;5055623;28;20167;-79
2023/03/12 12:11:17;;;;;;;14.43;10.27;;;7.10;99.90;;;;;;5055591;28;20201;-78
2023/03/12 12:13:56;;;;;;;13.97;8.93;;;7.20;99.90;;;;;;5073644;28;20185;-79
2023/03/12 12:16:35;;;;;;;17.87;11.27;;;7.20;99.90;;;;;;5055583;28;20487;-78
2023/03/12 12:19:36;;;;;;;12.77;10.63;;;7.20;99.90;;;;;;5055685;28;20206;-78
2023/03/12 12:22:37;;;;;;;12.77;9.97;;;7.30;99.90;;;;;;5021612;28;20561;-79
2023/03/12 12:25:12;;;;;;;14.30;9.77;;;7.30;99.90;;;;;;5027863;28;20594;-79
2023/03/12 12:27:47;;;;;;;15.07;10.60;;;7.30;99.90;;;;;;5056138;28;20154;-79
2023/03/12 12:30:50;;;;;;;14.67;10.23;;;7.30;99.90;;;;;;5090790;28;20186;-79
2023/03/12 12:33:32;;;;;;;14.13;9.93;;;7.30;99.90;;;;;;5056194;28;20178;-79
2023/03/12 12:35:59;;;;;;;16.17;9.93;;;7.40;99.90;;;;;;5074246;28;20241;-78
2023/03/12 12:38:30;;;;;;;16.60;10.37;;;7.40;99.90;;;;;;5073832;28;20175;-80
2023/03/12 12:41:08;;;;;;;17.33;10.83;;;7.40;99.90;;;;;;5056124;28;20208;-79
2023/03/12 12:43:38;;;;;;;16.60;10.40;;;7.50;99.90;;;;;;5074519;28;20550;-79
2023/03/12 12:46:07;;;;;;;16.60;10.63;;;7.60;99.90;;;;;;5056381;28;20312;-78
2023/03/12 12:48:39;;;;;;;19.67;11.60;;;7.70;99.90;;;;;;5056246;28;20217;-79
2023/03/12 12:51:06;;;;;;;18.93;11.20;;;7.70;99.90;;;;;;5074692;28;20190;-79
2023/03/12 12:53:37;;;;;;;22.77;12.90;;;7.90;99.90;;;;;;5074397;28;20166;-79
2023/03/12 12:56:09;;;;;;;22.43;12.70;;;8.10;99.90;;;;;;5074685;28;20155;-79
2023/03/12 12:58:52;;;;;;;22.23;13.13;;;8.30;99.90;;;;;;5090060;28;20186;-79
2023/03/12 13:01:19;;;;;;;21.27;12.90;;;8.40;99.90;;;;;;5075405;28;20197;-78
2023/03/12 13:03:45;;;;;;;24.20;13.73;;;8.70;99.90;;;;;;5074530;28;20665;-78
2023/03/12 13:06:11;;;;;;;19.77;13.20;;;8.90;99.90;;;;;;5056184;28;20182;-79
2023/03/12 13:08:41;;;;;;;29.20;14.70;;;9.00;99.90;;;;;;5074505;28;20166;-78